Time;durP1;ratioP1;P1;durP2;ratioP2;P2;SDS_P1;SDS_P2;PMS_P1;PMS_P2;Temp;Humidity;BMP_temperature;BMP_pressure;BME280_temperature;BME280_humidity;BME280_pressure;Samples;Min_cycle;Max_cycle;Signal;HPM_P1;HPM_P2
2021/10/02 00:46:36;;;;;;;11.55;7.83;;;;;;;6.87;100.00;93935.33;1773496;79;20959;-83
2021/10/02 00:49:02;;;;;;;10.58;7.83;;;;;;;6.87;100.00;93931.28;1839698;76;21500;-84
2021/10/02 00:51:29;;;;;;;11.55;8.23;;;;;;;6.87;100.00;93928.58;1798486;75;21613;-84
2021/10/02 00:53:55;;;;;;;12.35;7.95;;;;;;;6.87;100.00;93925.87;1791629;77;21010;-83
2021/10/02 00:56:22;;;;;;;9.68;7.12;;;;;;;6.86;100.00;93919.69;1833255;77;21552;-85
2021/10/02 00:58:50;;;;;;;18.02;9.30;;;;;;;6.83;100.00;93920.40;1832934;78;21075;-83
2021/10/02 01:01:27;;;;;;;9.13;7.53;;;;;;;6.82;100.00;93916.14;1801928;77;21032;-83
2021/10/02 01:04:14;;;;;;;9.03;7.28;;;;;;;6.81;100.00;93914.59;1797803;79;21053;-84
2021/10/02 01:06:59;;;;;;;13.93;8.00;;;;;;;6.79;100.00;93912.22;1813139;77;21066;-84
2021/10/02 01:09:34;;;;;;;8.88;6.67;;;;;;;6.77;100.00;93915.06;1837304;77;21983;-84
2021/10/02 01:12:04;;;;;;;;;;;;;;;6.75;100.00;93913.30;1818442;77;21014;-83
2021/10/02 01:14:41;;;;;;;12.23;7.35;;;;;;;6.71;100.00;93907.83;1792423;77;20273;-83
2021/10/02 01:20:08;;;;;;;12.60;7.12;;;;;;;6.65;100.00;93905.77;1771433;80;20181;-83
2021/10/02 01:26:06;;;;;;;9.20;6.90;;;;;;;6.57;100.00;93903.51;1754258;80;20987;-85
2021/10/02 01:28:35;;;;;;;9.00;7.50;;;;;;;6.54;100.00;93899.62;1757988;80;21086;-85
2021/10/02 01:33:59;;;;;;;12.18;6.97;;;;;;;6.53;100.00;93895.91;1810796;78;20927;-85
2021/10/02 01:47:38;;;;;;;11.48;8.70;;;;;;;6.47;100.00;93887.87;1806255;77;21109;-86
2021/10/02 01:50:06;;;;;;;13.68;8.30;;;;;;;6.46;100.00;93884.39;1812538;77;22312;-84
2021/10/02 01:52:38;;;;;;;14.50;8.23;;;;;;;6.45;100.00;93887.46;1802368;78;21018;-85
2021/10/02 01:55:08;;;;;;;14.50;8.35;;;;;;;6.43;100.00;93887.83;1824676;77;20998;-84
2021/10/02 01:57:44;;;;;;;11.63;7.45;;;;;;;6.41;100.00;93890.09;1835623;75;21579;-86
2021/10/02 02:00:12;;;;;;;10.70;7.60;;;;;;;6.40;100.00;93885.06;1788214;79;21017;-85
2021/10/02 02:02:44;;;;;;;13.30;8.03;;;;;;;6.43;100.00;93880.27;1782129;78;21113;-86
2021/10/02 02:05:11;;;;;;;11.43;7.10;;;;;;;6.45;100.00;93881.48;1748029;80;21040;-84
2021/10/02 02:07:42;;;;;;;13.03;7.87;;;;;;;6.50;100.00;93878.48;1767363;80;21070;-85
2021/10/02 02:10:08;;;;;;;10.98;7.62;;;;;;;6.54;100.00;93879.91;1812895;77;21056;-87
2021/10/02 02:12:35;;;;;;;10.15;8.25;;;;;;;6.61;100.00;93880.03;1842701;77;21026;-84
2021/10/02 02:15:09;;;;;;;10.98;8.45;;;;;;;6.66;100.00;93879.76;1831299;77;21133;-85
2021/10/02 02:17:38;;;;;;;12.20;7.00;;;;;;;6.69;100.00;93883.08;1836701;78;20951;-84
2021/10/02 02:20:06;;;;;;;10.75;7.62;;;;;;;6.71;100.00;93878.68;1811936;78;21045;-85
2021/10/02 02:22:32;;;;;;;10.70;8.50;;;;;;;6.72;100.00;93876.95;1799883;78;21514;-85
2021/10/02 02:24:59;;;;;;;13.38;8.50;;;;;;;6.74;100.00;93883.38;1808443;79;20974;-82
2021/10/02 02:27:26;;;;;;;12.90;9.08;;;;;;;6.80;100.00;93873.81;1829644;77;21137;-85
2021/10/02 02:29:53;;;;;;;16.67;8.58;;;;;;;6.85;100.00;93874.10;1784110;77;21076;-85
2021/10/02 02:32:19;;;;;;;9.68;7.72;;;;;;;6.90;100.00;93878.63;1830072;76;20981;-84
2021/10/02 02:34:46;;;;;;;13.35;8.90;;;;;;;6.95;100.00;93881.59;1806547;77;21016;-83
2021/10/02 02:37:13;;;;;;;12.60;8.43;;;;;;;6.97;100.00;93874.70;1767016;78;21105;-84
2021/10/02 02:39:40;;;;;;;12.30;8.33;;;;;;;7.06;100.00;93879.85;1773597;78;21557;-83
2021/10/02 02:42:06;;;;;;;13.70;8.65;;;;;;;7.12;100.00;93883.83;1815144;78;21074;-83
2021/10/02 02:44:36;;;;;;;8.28;7.05;;;;;;;7.16;100.00;93873.84;1809370;78;21050;-83
2021/10/02 02:47:10;;;;;;;12.95;7.78;;;;;;;7.21;100.00;93877.59;1788316;78;21120;-84
2021/10/02 02:49:53;;;;;;;13.55;7.53;;;;;;;7.23;100.00;93873.96;1758988;80;20950;-83
2021/10/02 02:52:25;;;;;;;12.60;7.62;;;;;;;7.25;100.00;93876.30;1837176;77;21122;-84
2021/10/02 02:55:09;;;;;;;12.15;7.83;;;;;;;7.22;100.00;93875.66;1801651;77;21057;-83
2021/10/02 02:57:42;;;;;;;12.55;7.50;;;;;;;7.23;100.00;93880.72;1822696;78;21029;-83
2021/10/02 03:00:20;;;;;;;10.40;6.60;;;;;;;7.19;100.00;93871.00;1813121;78;21113;-85
2021/10/02 03:03:07;;;;;;;7.67;6.47;;;;;;;7.24;100.00;93880.15;1801878;79;21015;-83
2021/10/02 03:05:39;;;;;;;8.68;6.55;;;;;;;7.23;100.00;93871.26;1775201;80;21150;-84
2021/10/02 03:08:16;;;;;;;9.80;7.12;;;;;;;7.25;100.00;93875.72;1754537;81;21082;-83
2021/10/02 03:10:49;;;;;;;10.30;7.00;;;;;;;7.23;100.00;93873.19;1776575;79;21043;-83
2021/10/02 03:13:18;;;;;;;10.20;6.43;;;;;;;7.23;100.00;93871.83;1779564;79;21050;-84
2021/10/02 03:15:47;;;;;;;8.75;6.65;;;;;;;7.23;100.00;93873.96;1808587;77;21448;-83
2021/10/02 03:18:15;;;;;;;10.20;7.42;;;;;;;7.21;100.00;93876.81;1844670;77;21025;-84
2021/10/02 03:20:42;;;;;;;10.60;7.15;;;;;;;7.16;100.00;93876.55;1858947;77;21031;-84
2021/10/02 03:23:11;;;;;;;11.30;6.47;;;;;;;7.15;100.00;93873.64;1778557;77;21101;-84
2021/10/02 03:25:38;;;;;;;10.63;7.03;;;;;;;7.16;100.00;93873.06;1777147;79;21141;-84
2021/10/02 03:28:05;;;;;;;7.97;6.92;;;;;;;7.13;99.41;93870.51;1782621;79;21014;-83
2021/10/02 03:30:32;;;;;;;10.63;6.25;;;;;;;7.08;98.85;93866.77;1779700;78;21635;-84
2021/10/02 03:32:59;;;;;;;8.90;6.55;;;;;;;7.02;98.54;93868.20;1742186;79;21041;-84
2021/10/02 03:35:25;;;;;;;10.15;6.80;;;;;;;6.97;98.52;93871.21;1817431;77;20971;-85
2021/10/02 03:37:55;;;;;;;7.17;6.00;;;;;;;6.94;98.72;93867.30;1837467;77;21071;-83
2021/10/02 03:40:21;;;;;;;9.93;6.10;;;;;;;6.92;98.67;93868.25;1825108;77;21057;-84
2021/10/02 03:42:53;;;;;;;8.70;5.72;;;;;;;6.90;98.53;93867.03;1821236;77;21532;-84
2021/10/02 03:45:23;;;;;;;7.00;5.53;;;;;;;6.90;98.35;93871.09;1816642;77;21210;-83
2021/10/02 03:47:49;;;;;;;10.25;7.05;;;;;;;6.77;98.29;93868.57;1802817;79;21612;-83
2021/10/02 03:50:16;;;;;;;7.20;5.55;;;;;;;6.61;98.54;93871.93;1814665;78;21006;-83
2021/10/02 03:52:43;;;;;;;8.45;5.50;;;;;;;6.47;98.94;93873.81;1798694;77;21428;-84
2021/10/02 03:55:12;;;;;;;13.80;6.10;;;;;;;6.37;99.40;93873.04;1813099;77;21101;-83
2021/10/02 03:57:41;;;;;;;8.18;5.95;;;;;;;6.29;99.88;93879.45;1776490;78;21018;-84
2021/10/02 04:00:09;;;;;;;8.90;5.37;;;;;;;6.23;100.00;93874.11;1806480;78;20999;-84
2021/10/02 04:02:36;;;;;;;9.20;5.42;;;;;;;6.18;100.00;93879.80;1803290;79;21541;-83
2021/10/02 04:05:03;;;;;;;12.68;6.25;;;;;;;6.13;100.00;93875.48;1818641;78;21002;-85
2021/10/02 04:07:33;;;;;;;7.25;5.90;;;;;;;6.13;100.00;93873.32;1824868;77;21126;-85
2021/10/02 04:09:59;;;;;;;6.60;5.58;;;;;;;6.11;100.00;93880.44;1787006;79;21006;-85
2021/10/02 04:12:27;;;;;;;9.60;4.97;;;;;;;6.12;100.00;93874.47;1778907;80;21077;-84
2021/10/02 04:14:54;;;;;;;8.13;5.30;;;;;;;6.14;100.00;93881.66;1780485;80;20996;-85
2021/10/02 04:17:20;;;;;;;7.33;5.25;;;;;;;6.17;100.00;93880.37;1778686;80;21049;-85
2021/10/02 04:19:47;;;;;;;8.55;5.28;;;;;;;6.23;100.00;93879.51;1823962;77;21129;-85
2021/10/02 04:22:15;;;;;;;10.18;6.50;;;;;;;6.26;100.00;93884.20;1815922;77;21022;-84
2021/10/02 04:24:41;;;;;;;6.15;5.47;;;;;;;6.32;100.00;93884.14;1807693;77;21714;-85
2021/10/02 04:27:09;;;;;;;6.50;5.00;;;;;;;6.33;100.00;93887.05;1775916;80;21073;-85
2021/10/02 04:29:37;;;;;;;13.28;5.40;;;;;;;6.26;100.00;93886.91;1781835;79;21105;-85
2021/10/02 04:32:04;;;;;;;6.78;5.00;;;;;;;6.17;100.00;93885.78;1830307;76;21085;-85
2021/10/02 04:34:33;;;;;;;6.83;4.70;;;;;;;6.13;100.00;93882.23;1785845;78;21862;-85
2021/10/02 04:37:02;;;;;;;6.33;4.60;;;;;;;6.14;100.00;93883.00;1721095;80;21124;-85
2021/10/02 04:39:31;;;;;;;9.68;5.78;;;;;;;6.18;100.00;93883.86;1745342;78;21517;-87
2021/10/02 04:41:59;;;;;;;8.70;5.37;;;;;;;6.25;100.00;93880.73;1708266;78;21024;-83
2021/10/02 04:44:27;;;;;;;9.65;4.87;;;;;;;6.35;100.00;93885.33;1846182;76;21765;-87
2021/10/02 04:46:53;;;;;;;8.65;5.15;;;;;;;6.39;100.00;93892.93;1827268;76;21052;-86
2021/10/02 04:49:20;;;;;;;8.78;6.03;;;;;;;6.43;100.00;93891.88;1771234;79;21066;-86
2021/10/02 04:51:47;;;;;;;6.95;4.87;;;;;;;6.43;100.00;93892.42;1768306;79;21113;-86
2021/10/02 04:54:13;;;;;;;16.50;5.75;;;;;;;6.42;100.00;93887.59;1764384;79;21081;-85
2021/10/02 04:56:40;;;;;;;7.97;4.87;;;;;;;6.42;100.00;93887.59;1832108;76;22157;-87
2021/10/02 04:59:07;;;;;;;6.40;5.30;;;;;;;6.48;100.00;93897.56;1804507;77;21412;-87
2021/10/02 05:01:33;;;;;;;6.35;5.00;;;;;;;6.46;100.00;93891.14;1791591;78;21085;-87
2021/10/02 05:04:01;;;;;;;10.68;5.58;;;;;;;6.42;100.00;93894.92;1791490;78;21026;-87
2021/10/02 05:06:28;;;;;;;9.58;5.85;;;;;;;6.38;100.00;93894.85;1786938;78;21060;-87
2021/10/02 05:08:55;;;;;;;6.75;4.97;;;;;;;6.40;100.00;93886.41;1814132;77;22341;-87
2021/10/02 05:11:23;;;;;;;6.53;5.17;;;;;;;6.48;100.00;93892.16;1793401;75;21064;-86
2021/10/02 05:13:49;;;;;;;10.28;5.53;;;;;;;6.53;100.00;93893.98;1804310;77;21104;-83
2021/10/02 05:16:16;;;;;;;10.25;5.65;;;;;;;6.62;100.00;93897.83;1795827;77;21734;-86
2021/10/02 05:18:42;;;;;;;7.95;5.80;;;;;;;6.70;100.00;93902.80;1820449;77;21088;-85
2021/10/02 05:21:09;;;;;;;17.87;13.10;;;;;;;6.77;100.00;93900.20;1839986;76;21112;-85
2021/10/02 05:23:35;;;;;;;9.58;6.45;;;;;;;6.85;100.00;93903.27;1815554;77;21076;-86
2021/10/02 05:26:01;;;;;;;6.87;5.53;;;;;;;6.90;99.41;93907.02;1813681;77;21509;-87
2021/10/02 05:28:28;;;;;;;7.58;5.45;;;;;;;6.89;98.56;93906.03;1808857;77;21163;-86
2021/10/02 05:30:54;;;;;;;7.50;5.10;;;;;;;6.78;98.17;93907.97;1806479;77;21187;-84
2021/10/02 05:33:21;;;;;;;7.28;5.03;;;;;;;6.70;98.49;93909.55;1783558;78;21058;-86
2021/10/02 05:35:48;;;;;;;7.75;4.97;;;;;;;6.63;98.77;93914.25;1775343;79;21080;-86
2021/10/02 05:38:19;;;;;;;6.80;5.28;;;;;;;6.63;99.53;93914.25;1806780;77;22120;-84
2021/10/02 05:40:43;;;;;;;6.92;5.00;;;;;;;6.68;99.88;93918.58;1794384;78;21085;-85
2021/10/02 05:43:09;;;;;;;5.87;5.05;;;;;;;6.72;100.00;93922.90;1724685;81;21108;-85
2021/10/02 05:45:39;;;;;;;13.03;5.12;;;;;;;6.79;100.00;93933.84;1772874;79;21758;-85
2021/10/02 05:48:06;;;;;;;7.17;5.40;;;;;;;6.88;100.00;93932.26;1804631;77;21622;-87
2021/10/02 05:50:33;;;;;;;9.03;5.40;;;;;;;6.91;99.77;93931.55;1791126;77;21667;-85
2021/10/02 05:52:59;;;;;;;6.10;4.90;;;;;;;6.93;99.78;93933.33;1819552;76;21067;-85
2021/10/02 05:55:26;;;;;;;10.18;5.17;;;;;;;6.95;99.91;93928.34;1794611;76;21065;-83
2021/10/02 05:57:52;;;;;;;19.95;8.35;;;;;;;7.00;100.00;93932.11;1710749;79;21119;-83
2021/10/02 06:00:19;;;;;;;14.80;6.70;;;;;;;7.06;100.00;93932.01;1803659;77;21066;-82
2021/10/02 06:02:46;;;;;;;8.68;6.70;;;;;;;7.17;100.00;93926.01;1720545;78;21207;-84
2021/10/02 06:05:12;;;;;;;22.07;10.13;;;;;;;7.31;100.00;93934.37;1760638;79;21083;-85
2021/10/02 06:07:39;;;;;;;11.95;6.45;;;;;;;7.39;100.00;93934.69;1776641;78;21044;-86
2021/10/02 06:10:07;;;;;;;11.43;7.08;;;;;;;7.55;100.00;93931.84;1782989;77;21670;-84
2021/10/02 06:12:37;;;;;;;9.53;5.50;;;;;;;7.66;100.00;93929.30;1781603;77;21124;-84
2021/10/02 06:15:03;;;;;;;9.53;5.55;;;;;;;7.74;100.00;93930.39;1759404;78;21038;-85
2021/10/02 06:17:30;;;;;;;10.03;6.12;;;;;;;7.76;100.00;93934.88;1747248;80;21091;-85
2021/10/02 06:19:57;;;;;;;8.40;6.85;;;;;;;7.81;100.00;93931.66;1796595;77;21108;-86
2021/10/02 06:22:25;;;;;;;13.32;8.53;;;;;;;7.92;100.00;93933.36;1835284;77;21775;-84
2021/10/02 06:24:52;;;;;;;13.98;8.73;;;;;;;7.96;100.00;93926.64;1852896;76;21038;-87
2021/10/02 06:27:19;;;;;;;11.00;8.68;;;;;;;8.02;100.00;93931.39;1781689;78;21078;-85
2021/10/02 06:29:45;;;;;;;13.78;9.18;;;;;;;8.10;100.00;93927.42;1806568;78;21053;-87
2021/10/02 06:32:13;;;;;;;10.95;8.65;;;;;;;8.19;100.00;93926.56;1838260;75;21138;-85
2021/10/02 06:34:39;;;;;;;12.60;8.70;;;;;;;8.30;100.00;93928.84;1848264;75;21828;-83
2021/10/02 06:37:06;;;;;;;19.77;9.70;;;;;;;8.39;100.00;93930.74;1790293;78;21059;-84
2021/10/02 06:39:32;;;;;;;12.30;8.18;;;;;;;8.47;100.00;93926.97;1808700;77;21130;-84
2021/10/02 06:41:59;;;;;;;13.22;8.83;;;;;;;8.57;100.00;93931.52;1852153;75;21010;-86
2021/10/02 06:44:26;;;;;;;12.05;8.53;;;;;;;8.64;100.00;93928.89;1819071;75;21105;-86
2021/10/02 06:46:54;;;;;;;12.25;8.70;;;;;;;8.72;100.00;93930.53;1786473;78;21187;-87
2021/10/02 06:49:23;;;;;;;14.93;10.85;;;;;;;8.75;100.00;93931.92;1783724;78;21034;-84
2021/10/02 06:51:49;;;;;;;12.28;8.80;;;;;;;8.80;100.00;93933.55;1784155;78;21031;-87
2021/10/02 06:54:15;;;;;;;10.93;7.42;;;;;;;8.83;100.00;93936.84;1783301;78;21045;-84
2021/10/02 06:56:43;;;;;;;11.22;8.23;;;;;;;8.85;100.00;93941.34;1787352;78;21096;-87
2021/10/02 06:59:11;;;;;;;11.45;8.85;;;;;;;8.90;100.00;93940.99;1789618;77;21137;-87
2021/10/02 07:01:38;;;;;;;11.88;9.13;;;;;;;8.95;100.00;93935.26;1797407;77;21060;-86
2021/10/02 07:04:04;;;;;;;15.32;9.40;;;;;;;9.04;100.00;93939.59;1859518;75;21960;-86
2021/10/02 07:06:32;;;;;;;11.88;8.30;;;;;;;9.11;99.88;93935.60;1809221;77;21093;-88
2021/10/02 07:08:58;;;;;;;11.85;8.15;;;;;;;9.24;100.00;93929.52;1839713;75;21074;-85
2021/10/02 07:11:26;;;;;;;14.35;8.78;;;;;;;9.42;100.00;93932.39;1855209;75;21016;-86
2021/10/02 07:13:53;;;;;;;13.75;8.50;;;;;;;9.63;99.23;93937.81;1837693;75;21026;-86
2021/10/02 07:16:21;;;;;;;11.35;7.87;;;;;;;9.85;98.02;93934.06;1771648;79;21037;-86
2021/10/02 07:18:48;;;;;;;9.53;7.67;;;;;;;10.06;96.47;93942.17;1770469;79;21069;-86
2021/10/02 07:21:16;;;;;;;12.47;8.18;;;;;;;10.22;95.94;93931.20;1830437;77;21050;-85
2021/10/02 07:23:44;;;;;;;10.68;7.95;;;;;;;10.41;95.45;93931.52;1800646;77;21034;-85
2021/10/02 07:26:11;;;;;;;11.88;8.08;;;;;;;10.60;94.62;93929.66;1807711;76;21065;-86
2021/10/02 07:28:39;;;;;;;11.53;7.37;;;;;;;10.76;92.87;93932.08;1789163;78;21503;-85
2021/10/02 07:31:06;;;;;;;11.83;8.00;;;;;;;10.86;92.02;93934.03;1719336;81;21141;-84
2021/10/02 07:33:33;;;;;;;8.50;7.28;;;;;;;10.94;91.42;93930.16;1772009;79;21069;-86
2021/10/02 07:36:01;;;;;;;11.22;8.10;;;;;;;11.02;90.68;93922.80;1770852;79;21116;-85
2021/10/02 07:38:27;;;;;;;11.28;8.48;;;;;;;11.09;90.26;93921.45;1768897;78;21046;-87
2021/10/02 07:40:55;;;;;;;10.10;8.45;;;;;;;11.21;90.28;93917.03;1795298;78;21440;-86
2021/10/02 07:43:21;;;;;;;9.98;7.62;;;;;;;11.35;89.17;93921.70;1783455;78;21600;-86
2021/10/02 07:45:48;;;;;;;11.35;8.03;;;;;;;11.42;87.90;93920.34;1774931;78;21048;-86
2021/10/02 07:48:16;;;;;;;9.00;7.80;;;;;;;11.52;87.57;93918.80;1813063;75;21157;-87
2021/10/02 07:50:42;;;;;;;11.68;8.70;;;;;;;11.69;86.99;93912.56;1789337;75;20999;-88
2021/10/02 07:53:10;;;;;;;11.65;8.20;;;;;;;11.85;85.57;93910.27;1758540;79;21032;-85
2021/10/02 07:55:36;;;;;;;14.40;8.68;;;;;;;11.91;84.98;93905.19;1799574;77;21080;-86
2021/10/02 07:58:03;;;;;;;11.57;7.78;;;;;;;11.91;84.72;93905.19;1822256;76;21041;-85
2021/10/02 08:00:32;;;;;;;13.18;8.15;;;;;;;11.93;85.52;93909.67;1850894;75;21095;-86
2021/10/02 08:02:58;;;;;;;13.78;9.90;;;;;;;11.98;84.55;93907.12;1833594;75;21932;-86
2021/10/02 08:05:25;;;;;;;11.70;8.48;;;;;;;11.99;85.12;93899.91;1811995;76;21069;-86
2021/10/02 08:07:52;;;;;;;9.75;7.83;;;;;;;12.07;84.72;93902.84;1827207;76;21153;-87
2021/10/02 08:10:21;;;;;;;18.35;8.98;;;;;;;12.18;84.18;93897.34;1774551;78;21117;-86
2021/10/02 08:12:48;;;;;;;11.80;8.28;;;;;;;12.27;83.85;93903.77;1818877;77;21890;-86
2021/10/02 08:15:17;;;;;;;9.40;7.55;;;;;;;12.35;83.47;93899.25;1817150;75;21057;-86
2021/10/02 08:17:43;;;;;;;14.07;8.33;;;;;;;12.40;82.79;93886.56;1749235;78;21061;-86
2021/10/02 08:20:16;;;;;;;13.48;8.98;;;;;;;12.46;82.35;93899.22;1766558;76;21588;-86
2021/10/02 08:22:50;;;;;;;13.22;8.40;;;;;;;12.46;82.02;93896.50;1828895;76;21052;-85
2021/10/02 08:25:19;;;;;;;12.03;8.33;;;;;;;12.46;82.22;93895.13;1785165;78;21135;-85
2021/10/02 08:27:46;;;;;;;10.20;8.10;;;;;;;12.51;82.13;93880.30;1739103;80;21067;-85
2021/10/02 08:30:15;;;;;;;10.18;8.30;;;;;;;12.57;82.59;93888.27;1787143;78;21030;-86
2021/10/02 08:32:42;;;;;;;11.28;9.00;;;;;;;12.63;82.40;93879.85;1794430;78;21038;-86
2021/10/02 08:35:09;;;;;;;12.95;8.10;;;;;;;12.75;82.95;93875.90;1825326;76;21099;-85
2021/10/02 08:37:38;;;;;;;30.82;8.65;;;;;;;12.93;82.65;93873.08;1799114;78;21054;-88
2021/10/02 08:40:07;;;;;;;8.80;7.65;;;;;;;13.05;81.96;93869.32;1800410;77;21482;-85
2021/10/02 08:42:37;;;;;;;12.55;9.05;;;;;;;13.21;81.04;93869.41;1800537;78;21557;-86
2021/10/02 08:45:04;;;;;;;13.50;8.73;;;;;;;13.33;79.57;93860.77;1805184;78;21057;-87
2021/10/02 08:47:35;;;;;;;14.05;9.48;;;;;;;13.41;78.42;93862.27;1807806;77;21611;-84
2021/10/02 08:50:02;;;;;;;13.08;9.40;;;;;;;13.47;78.70;93859.89;1824970;77;21346;-84
2021/10/02 08:52:29;;;;;;;9.23;7.45;;;;;;;13.57;77.66;93864.47;1759996;79;21570;-86
2021/10/02 08:54:59;;;;;;;11.88;7.75;;;;;;;13.67;76.77;93858.15;1793880;77;21068;-86
2021/10/02 08:57:27;;;;;;;10.15;7.72;;;;;;;13.79;76.39;93858.23;1846139;75;21317;-85
2021/10/02 08:59:55;;;;;;;9.88;7.70;;;;;;;13.90;75.70;93852.67;1849375;75;21026;-84
2021/10/02 09:02:23;;;;;;;14.63;8.40;;;;;;;14.01;75.24;93851.98;1826862;77;21640;-85
2021/10/02 09:04:51;;;;;;;9.23;7.40;;;;;;;14.13;73.96;93856.92;1812036;76;21065;-85
2021/10/02 09:07:20;;;;;;;8.75;7.08;;;;;;;14.19;72.42;93847.70;1847812;75;21611;-84
2021/10/02 09:09:48;;;;;;;12.45;8.45;;;;;;;14.22;71.18;93844.92;1816959;75;21142;-85
2021/10/02 09:12:19;;;;;;;12.70;7.70;;;;;;;14.26;72.21;93844.29;1807761;77;21007;-85
2021/10/02 09:14:45;;;;;;;10.55;8.25;;;;;;;14.36;72.57;93842.59;1795376;77;21066;-85
2021/10/02 09:17:14;;;;;;;13.75;8.33;;;;;;;14.44;71.81;93839.98;1791293;77;21114;-86
2021/10/02 09:19:41;;;;;;;10.35;7.20;;;;;;;14.47;71.69;93835.04;1834688;77;21061;-87
2021/10/02 09:22:10;;;;;;;11.65;6.50;;;;;;;14.60;71.23;93830.45;1836390;76;21540;-86
2021/10/02 09:24:43;;;;;;;7.40;5.58;;;;;;;14.69;69.00;93823.86;1836311;77;21519;-85
2021/10/02 09:27:25;;;;;;;7.58;6.08;;;;;;;14.75;64.77;93826.34;1837952;77;21318;-84
2021/10/02 09:30:06;;;;;;;9.30;5.15;;;;;;;14.80;63.77;93825.87;1846239;76;21563;-85
2021/10/02 09:32:36;;;;;;;10.63;4.72;;;;;;;14.87;61.68;93824.41;1843703;77;20958;-85
2021/10/02 09:35:18;;;;;;;7.80;5.65;;;;;;;14.96;60.93;93818.41;1844125;77;20971;-87
2021/10/02 09:37:53;;;;;;;7.65;5.97;;;;;;;15.03;60.72;93816.94;1849352;75;21028;-84
2021/10/02 09:40:23;;;;;;;8.73;5.92;;;;;;;15.10;63.15;93813.33;1820874;77;21079;-86
2021/10/02 09:42:58;;;;;;;6.12;5.53;;;;;;;15.15;63.37;93812.25;1831953;76;21026;-84
2021/10/02 09:45:29;;;;;;;8.75;5.60;;;;;;;15.23;63.30;93809.60;1830643;76;21460;-84
2021/10/02 09:48:00;;;;;;;8.90;5.55;;;;;;;15.28;60.73;93800.91;1821747;77;21129;-85
2021/10/02 09:50:34;;;;;;;8.90;5.15;;;;;;;15.23;61.39;93802.76;1811880;77;21673;-85
2021/10/02 09:53:03;;;;;;;7.87;5.00;;;;;;;15.28;60.96;93802.27;1812882;77;21953;-86
2021/10/02 09:55:46;;;;;;;7.65;5.25;;;;;;;15.38;60.67;93801.14;1836603;76;21084;-85
2021/10/02 09:58:30;;;;;;;9.55;5.25;;;;;;;15.42;59.15;93805.96;1799237;76;21082;-85
2021/10/02 10:00:57;;;;;;;8.78;5.08;;;;;;;15.33;60.55;93805.13;1809030;77;21624;-86
2021/10/02 10:03:24;;;;;;;8.58;4.28;;;;;;;15.25;60.61;93794.88;1822645;76;21080;-85
2021/10/02 10:05:54;;;;;;;9.25;5.37;;;;;;;15.19;60.34;93803.38;1833873;76;21107;-85
2021/10/02 10:08:26;;;;;;;7.37;4.62;;;;;;;15.12;60.18;93790.39;1806768;78;21032;-84
2021/10/02 10:11:06;;;;;;;7.75;4.70;;;;;;;15.06;59.92;93793.61;1781187;77;21526;-84
2021/10/02 10:13:32;;;;;;;7.65;4.75;;;;;;;15.03;59.42;93793.06;1807640;77;21571;-86
2021/10/02 10:16:01;;;;;;;6.17;4.60;;;;;;;15.06;60.87;93794.20;1802826;77;21037;-88
2021/10/02 10:18:30;;;;;;;7.12;5.42;;;;;;;15.16;61.22;93796.02;1804917;77;21060;-85
2021/10/02 10:21:00;;;;;;;6.78;5.00;;;;;;;15.22;59.30;93797.08;1809984;77;21046;-85
2021/10/02 10:23:32;;;;;;;6.50;4.70;;;;;;;15.18;58.79;93791.48;1810020;77;21048;-85
2021/10/02 10:26:14;;;;;;;6.30;5.70;;;;;;;15.14;58.91;93785.28;1794375;77;21065;-86
2021/10/02 10:28:43;;;;;;;8.10;4.95;;;;;;;15.13;60.06;93786.48;1854575;75;21041;-85
2021/10/02 10:31:19;;;;;;;5.12;4.30;;;;;;;15.18;59.19;93785.41;1788769;75;21092;-85
2021/10/02 10:33:53;;;;;;;8.53;4.97;;;;;;;15.24;57.82;93783.75;1785845;78;21100;-86
2021/10/02 10:36:22;;;;;;;9.43;5.53;;;;;;;15.31;57.67;93781.50;1786894;78;21054;-85
2021/10/02 10:38:50;;;;;;;9.70;4.72;;;;;;;15.40;57.33;93778.22;1797953;76;21080;-83
2021/10/02 10:41:18;;;;;;;9.55;5.45;;;;;;;15.42;57.03;93769.77;1812454;77;21009;-84
2021/10/02 10:43:44;;;;;;;7.33;5.08;;;;;;;15.45;59.22;93761.29;1778127;78;21132;-84
2021/10/02 10:46:14;;;;;;;6.17;4.95;;;;;;;15.54;60.70;93765.66;1775042;79;21070;-85
2021/10/02 10:48:42;;;;;;;7.30;4.53;;;;;;;15.57;58.86;93762.65;1805761;77;21624;-85
2021/10/02 10:51:12;;;;;;;7.47;5.42;;;;;;;15.55;58.74;93762.48;1789712;78;21068;-86
2021/10/02 10:53:44;;;;;;;12.43;5.40;;;;;;;15.59;59.64;93758.91;1794326;75;21531;-86
2021/10/02 10:56:13;;;;;;;18.42;5.75;;;;;;;15.71;61.34;93765.17;1850128;75;21695;-86
2021/10/02 10:58:40;;;;;;;6.08;4.42;;;;;;;15.81;61.49;93762.08;1813915;76;21827;-87
2021/10/02 11:01:09;;;;;;;8.45;4.30;;;;;;;15.87;59.93;93759.00;1830729;76;21038;-87
2021/10/02 11:03:48;;;;;;;6.53;5.03;;;;;;;15.88;60.42;93754.48;1816656;77;20975;-87
2021/10/02 11:06:18;;;;;;;9.30;5.85;;;;;;;15.89;59.99;93757.40;1784158;79;21034;-86
2021/10/02 11:09:07;;;;;;;9.13;5.28;;;;;;;15.93;60.58;93753.98;1785240;77;21100;-87
2021/10/02 11:11:53;;;;;;;9.50;4.80;;;;;;;15.97;58.91;93749.20;1803325;77;21521;-85
2021/10/02 11:17:02;;;;;;;8.40;5.20;;;;;;;15.83;59.14;93747.33;1791529;77;21110;-86
2021/10/02 11:19:40;;;;;;;11.40;5.78;;;;;;;15.73;58.84;93747.72;1823632;76;21138;-85
2021/10/02 11:23:08;;;;;;;8.58;5.25;;;;;;;15.71;59.06;93744.62;1814189;76;21551;-85
2021/10/02 11:25:36;;;;;;;6.12;5.47;;;;;;;15.73;57.77;93749.09;1819952;76;21043;-88
2021/10/02 11:28:26;;;;;;;12.13;5.72;;;;;;;15.65;57.59;93747.08;1804391;77;21093;-88
2021/10/02 11:30:55;;;;;;;9.43;5.97;;;;;;;15.60;58.43;93748.11;1720898;77;21102;-87
2021/10/02 11:33:51;;;;;;;6.53;5.28;;;;;;;15.50;58.68;93745.16;1808721;77;21082;-86
2021/10/02 11:36:36;;;;;;;13.30;5.95;;;;;;;15.47;58.18;93741.88;1805715;77;21733;-87
2021/10/02 11:39:27;;;;;;;8.60;5.62;;;;;;;15.45;59.14;93734.66;1801572;77;21172;-85
2021/10/02 11:41:59;;;;;;;7.95;5.55;;;;;;;15.51;59.78;93732.23;1768891;78;21075;-86
2021/10/02 11:44:44;;;;;;;7.20;5.83;;;;;;;15.58;59.62;93734.08;1834777;76;21330;-84
2021/10/02 11:47:38;;;;;;;7.95;6.20;;;;;;;15.64;60.53;93735.89;1770294;79;21121;-84
2021/10/02 11:50:14;;;;;;;8.68;5.90;;;;;;;15.74;60.11;93731.45;1733699;80;21139;-86
2021/10/02 11:52:53;;;;;;;7.40;5.60;;;;;;;15.83;59.37;93736.36;1740388;80;21626;-86
2021/10/02 11:55:45;;;;;;;14.18;6.42;;;;;;;15.85;58.32;93737.50;1772069;78;21061;-84
2021/10/02 11:58:13;;;;;;;9.23;5.67;;;;;;;15.79;58.14;93732.32;1828644;77;21061;-84
2021/10/02 12:00:58;;;;;;;7.30;5.10;;;;;;;15.78;57.92;93738.41;1822610;77;21126;-86
2021/10/02 12:03:30;;;;;;;7.72;6.25;;;;;;;15.75;58.28;93734.36;1824703;77;21127;-84
2021/10/02 12:06:01;;;;;;;8.88;6.25;;;;;;;15.66;57.61;93729.44;1826391;77;21022;-85
2021/10/02 12:08:29;;;;;;;10.23;6.75;;;;;;;15.64;59.10;93727.66;1825532;77;21046;-85
2021/10/02 12:11:05;;;;;;;8.45;6.00;;;;;;;15.62;59.51;93729.30;1826889;77;21052;-85
2021/10/02 12:13:45;;;;;;;11.30;6.05;;;;;;;15.59;59.87;93726.79;1839123;77;21088;-85
2021/10/02 12:16:17;;;;;;;8.50;6.40;;;;;;;15.51;59.69;93728.11;1807592;77;21138;-85
2021/10/02 12:19:09;;;;;;;10.28;6.47;;;;;;;15.30;58.81;93730.02;1830404;77;21020;-82
2021/10/02 12:21:41;;;;;;;9.18;6.47;;;;;;;15.20;61.04;93732.96;1816937;77;21127;-85
2021/10/02 12:24:26;;;;;;;7.92;6.62;;;;;;;15.13;61.72;93731.11;1762086;76;21082;-84
2021/10/02 12:29:33;;;;;;;11.15;6.67;;;;;;;14.93;63.27;93715.98;1794054;79;21585;-85
2021/10/02 12:32:09;;;;;;;9.85;6.65;;;;;;;14.93;63.31;93727.50;1780087;79;21305;-84
2021/10/02 12:34:46;;;;;;;10.32;7.00;;;;;;;14.97;62.49;93725.48;1784424;79;20976;-85
2021/10/02 12:37:27;;;;;;;10.05;7.17;;;;;;;14.98;63.01;93720.97;1795945;77;21053;-85
2021/10/02 12:40:06;;;;;;;14.83;7.25;;;;;;;14.99;63.39;93724.48;1798631;77;21022;-86
2021/10/02 12:42:46;;;;;;;10.68;6.80;;;;;;;14.96;63.37;93714.36;1786383;79;21053;-86
2021/10/02 12:45:23;;;;;;;10.30;6.50;;;;;;;14.94;63.53;93726.34;1765657;79;21280;-86
2021/10/02 12:47:54;;;;;;;11.03;7.53;;;;;;;14.97;63.58;93715.90;1717735;81;21050;-85
2021/10/02 12:50:24;;;;;;;9.80;6.67;;;;;;;14.96;62.61;93717.86;1783013;77;21120;-86
2021/10/02 12:52:53;;;;;;;8.18;6.37;;;;;;;14.93;62.72;93716.55;1796859;77;21071;-85
2021/10/02 12:55:21;;;;;;;11.05;6.62;;;;;;;14.94;62.42;93712.64;1775920;78;21083;-86